메인 페이지
METAR-TAF:

METAR-TAF

공항 :

포트워스, 텍사스, 미국

위도: 32-58-24N, 경도: 097-19-05W, 고도: 220m

현재 날씨관측

예보는 35분 전, 17:53시(UTC)에 발표되었습니다.
동남동5kt
온도 12°C
습도 82%
기압 1020 hPa
시정: 8.0km
고도 700ft 상공 흐림
박무

METAR: KAFW 051753Z 11005KT 5SM BR OVC007 12/09 A3011 RMK AO2 SLP198 T01220094 10122 20083 58004 $

시각: 13:28 (18:28 UTC)

예보

예보는 53분 전, 17:35시(UTC)에 발표되었습니다.
예보 대상 시간: 05일 18시부터 06일 18시까지 (UTC)
남동3kt
시정: 10km
고도 600ft 상공 구름 보통
고도 1500ft 상공 흐림
일시적
05일 18시부터 05일 19시까지 (UTC)
시정: 8.0km
고도 600ft 상공 구름 많음
박무
05일 2000시부터 (UTC)
남남동6kt
시정: 10km
고도 1800ft 상공 구름 보통
고도 2400ft 상공 구름 많음
06일 0200시부터 (UTC)
남남동6kt
시정: 10km
고도 3500ft 상공 구름 보통
고도 6000ft 상공 흐림
06일 1000시부터 (UTC)
남남동5kt
시정: 3.2km
고도 1200ft 상공 흐림
약한이슬비, 박무
06일 1400시부터 (UTC)
남남동7kt
시정: 6.4km
고도 700ft 상공 흐림
박무
06일 1700시부터 (UTC)
11kt
시정: 10km
고도 1300ft 상공 흐림

TAF: KAFW 051735Z 0518/0618 14003KT P6SM SCT006 OVC015 TEMPO 0518/0519 5SM BR BKN006 FM052000 15006KT P6SM SCT018 BKN024 FM060200 15006KT P6SM SCT035 OVC060 FM061000 15005KT 2SM -DZ BR OVC012 FM061400 16007KT 4SM BR OVC007 FM061700 18011KT P6SM OVC013

4,000개 이상의 공항 관측 자료 및 예보 (METAR 및 TAF 보고).

지도상에서 검색 가능한 기상관측소가 노란 점과 빨간 점으로 표시되어 있습니다.

기상관측소 명을 보려면 표시 위로 마우스를 이동하세요.

날씨 관측과 예보를 보려면 클릭하세요.

지도 변경 : 확대하려면 엑스 표시가 있는 녹색 버튼, 축소하려면 빼기 표시가 있는 녹색 버튼, 다음 페이지의 지도를 보려면 녹색 화살표를 클릭하세요.


METAR-TAF: